Time;durP1;ratioP1;P1;durP2;ratioP2;P2;SDS_P1;SDS_P2;PMS_P1;PMS_P2;Temp;Humidity;BMP_temperature;BMP_pressure;BME280_temperature;BME280_humidity;BME280_pressure;Samples;Min_cycle;Max_cycle;Signal;HPM_P1;HPM_P2
2021/12/06 00:02:09;;;;;;;44.72;17.80;;;;;;;4.76;100.00;100319.72;5055833;28;20540;-72
2021/12/06 00:04:55;;;;;;;59.03;18.35;;;;;;;4.50;100.00;100305.88;5056359;28;20033;-72
2021/12/06 00:07:41;;;;;;;47.95;17.50;;;;;;;4.69;100.00;100305.00;5055345;28;20025;-72
2021/12/06 00:10:27;;;;;;;53.40;19.30;;;;;;;4.78;100.00;100297.22;5054379;28;20517;-73
2021/12/06 00:13:13;;;;;;;62.53;18.92;;;;;;;4.92;100.00;100308.47;5055390;28;20449;-74
2021/12/06 00:15:59;;;;;;;41.45;17.00;;;;;;;4.82;100.00;100311.91;5054940;28;20017;-73
2021/12/06 00:18:47;;;;;;;42.17;18.73;;;;;;;5.43;100.00;100304.88;5054172;28;20024;-73
2021/12/06 00:21:33;;;;;;;33.78;17.38;;;;;;;5.21;100.00;100306.66;5054813;28;20036;-70
2021/12/06 00:24:19;;;;;;;52.45;19.38;;;;;;;5.21;100.00;100301.47;5054957;28;20037;-72
2021/12/06 00:27:05;;;;;;;43.13;18.42;;;;;;;5.08;100.00;100297.19;5053582;28;20028;-71
2021/12/06 00:29:52;;;;;;;43.13;18.90;;;;;;;5.53;100.00;100301.34;5055289;28;20044;-71
2021/12/06 00:32:40;;;;;;;57.03;18.38;;;;;;;5.24;100.00;100305.78;5054885;28;20021;-71
2021/12/06 00:35:26;;;;;;;45.67;18.45;;;;;;;5.04;100.00;100320.53;5053174;28;20040;-71
2021/12/06 00:38:12;;;;;;;46.45;18.05;;;;;;;5.28;100.00;100318.72;5054423;28;20029;-72
2021/12/06 00:40:58;;;;;;;34.25;16.95;;;;;;;5.38;100.00;100321.34;5054542;28;20094;-72
2021/12/06 00:43:44;;;;;;;52.25;17.08;;;;;;;4.63;100.00;100317.97;5053742;28;20040;-71
2021/12/06 00:46:29;;;;;;;68.45;18.80;;;;;;;4.74;100.00;100324.03;5039731;28;20021;-70
2021/12/06 00:49:15;;;;;;;39.45;17.67;;;;;;;4.65;100.00;100324.03;5054030;28;20025;-70
2021/12/06 00:52:01;;;;;;;69.60;18.02;;;;;;;4.84;100.00;100324.88;5054947;28;20468;-71
2021/12/06 00:54:49;;;;;;;79.53;20.70;;;;;;;4.84;100.00;100304.13;5039390;28;20043;-71
2021/12/06 00:57:34;;;;;;;75.13;19.35;;;;;;;5.07;100.00;100304.97;5054311;28;20103;-71
2021/12/06 01:00:38;;;;;;;75.43;20.80;;;;;;;4.78;100.00;100307.59;5054798;28;20128;-71
2021/12/06 01:03:30;;;;;;;133.95;22.35;;;;;;;4.64;100.00;100287.72;5053489;28;20029;-71
2021/12/06 01:06:16;;;;;;;52.38;19.77;;;;;;;5.20;100.00;100271.16;5053833;28;20044;-71
2021/12/06 01:09:02;;;;;;;48.78;20.25;;;;;;;5.52;100.00;100257.19;5053490;28;20032;-72
2021/12/06 01:11:48;;;;;;;60.30;20.00;;;;;;;5.18;100.00;100251.25;5053352;28;20045;-71
2021/12/06 01:14:34;;;;;;;43.33;17.88;;;;;;;5.40;100.00;100258.97;5054870;28;20130;-71
2021/12/06 01:17:20;;;;;;;51.53;17.92;;;;;;;4.97;100.00;100244.41;5054021;28;20179;-71
2021/12/06 01:20:10;;;;;;;30.52;15.48;;;;;;;5.21;100.00;100228.75;5053349;28;20025;-72
2021/12/06 01:40:44;;;;;;;41.15;17.48;;;;;;;5.52;100.00;100272.78;5058501;28;20154;-72
2021/12/06 01:43:30;;;;;;;78.43;18.50;;;;;;;5.20;100.00;100280.69;5057775;28;20040;-71
2021/12/06 01:46:16;;;;;;;95.75;17.92;;;;;;;4.89;100.00;100277.31;5058215;28;20119;-71
2021/12/06 01:49:03;;;;;;;65.93;17.70;;;;;;;4.81;100.00;100275.56;5057585;28;20025;-71
2021/12/06 01:51:51;;;;;;;58.10;17.00;;;;;;;4.78;100.00;100280.75;5041837;28;20017;-71
2021/12/06 01:54:37;;;;;;;48.50;17.15;;;;;;;4.99;100.00;100286.78;5057631;28;20033;-73
2021/12/06 01:57:25;;;;;;;64.80;17.67;;;;;;;4.89;100.00;100276.44;5057273;28;20021;-70
2021/12/06 02:00:17;;;;;;;117.05;18.08;;;;;;;4.82;100.00;100272.97;5058446;28;20033;-71
2021/12/06 02:03:03;;;;;;;94.32;17.73;;;;;;;4.63;100.00;100276.47;5057196;28;20036;-70
2021/12/06 02:05:49;;;;;;;66.75;16.90;;;;;;;4.30;100.00;100270.44;5056864;28;20036;-72
2021/12/06 02:08:35;;;;;;;75.65;15.93;;;;;;;4.59;100.00;100271.28;5057892;28;20049;-70
2021/12/06 02:11:24;;;;;;;88.80;17.45;;;;;;;4.62;100.00;100266.06;5057225;28;20045;-71
2021/12/06 02:14:31;;;;;;;45.42;17.77;;;;;;;4.86;100.00;100258.25;5057229;28;20041;-71
2021/12/06 02:17:24;;;;;;;60.78;16.63;;;;;;;4.99;100.00;100253.03;5057298;28;20136;-71
2021/12/06 02:20:22;;;;;;;108.28;18.15;;;;;;;4.46;100.00;100273.00;5056555;28;20472;-70
2021/12/06 02:23:08;;;;;;;31.35;14.63;;;;;;;4.60;100.00;100285.97;5057262;28;20090;-71
2021/12/06 02:25:54;;;;;;;41.80;14.68;;;;;;;4.59;100.00;100279.91;5041999;28;20032;-73
2021/12/06 02:28:39;;;;;;;38.88;17.27;;;;;;;5.11;100.00;100275.53;5057573;28;20041;-71
2021/12/06 02:31:26;;;;;;;75.72;18.23;;;;;;;5.26;100.00;100275.47;5056750;28;20033;-72
2021/12/06 02:34:13;;;;;;;40.88;17.15;;;;;;;5.38;100.00;100261.59;5056557;28;20116;-72
2021/12/06 02:36:59;;;;;;;42.92;19.00;;;;;;;5.84;100.00;100255.31;5057048;28;20021;-71
2021/12/06 02:39:46;;;;;;;34.65;16.75;;;;;;;5.47;100.00;100258.06;5055519;28;20493;-72
2021/12/06 02:42:32;;;;;;;55.67;17.40;;;;;;;5.38;100.00;100248.59;5041807;28;20044;-71
2021/12/06 02:45:26;;;;;;;51.08;18.27;;;;;;;4.91;100.00;100241.81;5056976;28;20373;-70
2021/12/06 02:48:13;;;;;;;58.20;17.02;;;;;;;4.69;100.00;100254.84;5056639;28;20025;-72
2021/12/06 02:51:04;;;;;;;47.55;19.48;;;;;;;4.77;100.00;100261.75;5055321;28;20107;-71
2021/12/06 02:53:50;;;;;;;71.82;19.15;;;;;;;4.98;100.00;100259.09;5057626;28;20465;-71
2021/12/06 02:56:51;;;;;;;69.65;17.25;;;;;;;4.88;100.00;100249.63;5055669;28;20033;-71
2021/12/06 02:59:40;;;;;;;46.00;17.83;;;;;;;5.36;100.00;100256.41;5056363;28;20033;-72
2021/12/06 03:02:30;;;;;;;80.15;20.02;;;;;;;5.01;100.00;100253.03;5056110;28;20029;-73
2021/12/06 03:05:16;;;;;;;44.17;19.30;;;;;;;5.66;100.00;100239.81;5042483;28;20024;-71
2021/12/06 03:08:02;;;;;;;37.55;18.83;;;;;;;5.46;100.00;100247.69;5042370;28;20058;-70
2021/12/06 03:10:48;;;;;;;50.78;17.63;;;;;;;5.36;100.00;100249.44;5056256;28;20045;-71
2021/12/06 03:13:35;;;;;;;65.80;17.23;;;;;;;4.88;100.00;100244.44;5056350;28;20036;-72
2021/12/06 03:16:21;;;;;;;67.90;17.35;;;;;;;4.84;100.00;100247.03;5055512;28;20032;-72
2021/12/06 03:19:08;;;;;;;74.70;20.20;;;;;;;4.47;100.00;100258.34;5056997;28;20036;-71
2021/12/06 03:21:54;;;;;;;57.10;19.33;;;;;;;4.60;100.00;100260.91;5055496;28;20040;-70
2021/12/06 03:24:40;;;;;;;62.72;20.17;;;;;;;4.86;100.00;100264.31;5056038;28;20033;-73
2021/12/06 03:27:26;;;;;;;43.25;19.20;;;;;;;5.14;100.00;100253.00;5041217;28;20122;-71
2021/12/06 03:30:13;;;;;;;51.25;18.73;;;;;;;5.28;100.00;100238.22;5041736;28;20386;-70
2021/12/06 03:32:59;;;;;;;78.15;20.25;;;;;;;5.08;100.00;100234.00;5055898;28;20087;-71
2021/12/06 03:35:45;;;;;;;58.15;19.55;;;;;;;5.22;100.00;100238.28;5055458;28;20087;-71
2021/12/06 03:38:32;;;;;;;60.20;19.17;;;;;;;5.48;100.00;100245.97;5055499;28;20025;-71
2021/12/06 03:41:20;;;;;;;52.55;19.98;;;;;;;5.79;100.00;100251.84;5055992;28;20029;-71
2021/12/06 03:44:06;;;;;;;59.80;18.85;;;;;;;5.52;100.00;100242.47;5055549;28;20507;-70
2021/12/06 03:46:58;;;;;;;52.28;18.95;;;;;;;5.09;100.00;100235.72;5056794;28;20025;-71
2021/12/06 03:49:44;;;;;;;59.55;18.50;;;;;;;4.89;100.00;100238.38;5041741;28;20032;-71
2021/12/06 03:52:30;;;;;;;39.53;17.75;;;;;;;4.74;100.00;100235.81;5056866;28;20028;-72
2021/12/06 03:55:16;;;;;;;44.25;17.65;;;;;;;4.70;100.00;100246.19;5055246;28;20025;-71
2021/12/06 03:58:02;;;;;;;50.72;19.08;;;;;;;4.87;100.00;100260.00;5055603;28;20029;-72
2021/12/06 04:00:48;;;;;;;56.70;20.08;;;;;;;5.36;100.00;100256.41;5055799;28;20033;-71
2021/12/06 04:03:36;;;;;;;47.85;18.65;;;;;;;5.33;100.00;100238.22;5040565;28;20040;-71
2021/12/06 04:06:22;;;;;;;71.43;19.63;;;;;;;5.12;100.00;100225.31;5054506;28;20032;-71
2021/12/06 04:09:09;;;;;;;68.93;19.95;;;;;;;4.78;100.00;100250.50;5054942;28;20461;-72
2021/12/06 04:11:55;;;;;;;46.70;18.35;;;;;;;5.36;100.00;100256.41;5040243;28;20049;-71
2021/12/06 04:14:42;;;;;;;58.78;18.58;;;;;;;5.06;100.00;100266.88;5054240;28;20098;-70
2021/12/06 04:17:27;;;;;;;45.60;18.77;;;;;;;5.42;100.00;100277.13;5054940;28;20036;-70
2021/12/06 04:20:13;;;;;;;63.35;20.02;;;;;;;5.17;100.00;100273.78;5054826;28;20361;-71
2021/12/06 04:23:01;;;;;;;66.13;22.02;;;;;;;5.15;100.00;100280.69;5053899;28;20037;-71
2021/12/06 04:25:48;;;;;;;53.60;22.05;;;;;;;5.75;100.00;100284.81;5040782;28;20064;-71
2021/12/06 04:28:35;;;;;;;49.45;20.05;;;;;;;5.19;100.00;100274.63;5054599;28;20339;-71
2021/12/06 04:31:21;;;;;;;56.70;22.33;;;;;;;5.13;100.00;100266.88;5054327;28;20394;-71
2021/12/06 04:34:07;;;;;;;58.30;23.13;;;;;;;5.33;100.00;100267.66;5054593;28;20028;-72
2021/12/06 04:36:53;;;;;;;50.05;19.42;;;;;;;5.08;100.00;100255.63;5039543;28;20025;-71
2021/12/06 04:39:39;;;;;;;58.30;22.70;;;;;;;5.64;100.00;100264.91;5054394;28;20025;-71
2021/12/06 04:42:25;;;;;;;51.72;21.25;;;;;;;5.65;100.00;100274.44;5054428;28;20029;-71
2021/12/06 04:45:13;;;;;;;63.00;20.83;;;;;;;5.09;100.00;100272.94;5054000;28;20036;-71
2021/12/06 04:47:59;;;;;;;45.28;19.75;;;;;;;5.28;100.00;100266.78;5040046;28;20035;-72
2021/12/06 04:50:46;;;;;;;52.55;20.10;;;;;;;5.38;100.00;100274.56;5054288;28;20031;-71
2021/12/06 04:53:36;;;;;;;55.95;21.23;;;;;;;5.59;100.00;100275.34;5055484;28;20035;-72
2021/12/06 04:56:21;;;;;;;45.17;20.05;;;;;;;5.31;100.00;100261.59;5052971;28;20025;-73
2021/12/06 04:59:25;;;;;;;47.63;20.98;;;;;;;5.47;100.00;100269.34;5054568;28;20029;-70
2021/12/06 05:02:17;;;;;;;34.55;16.88;;;;;;;5.08;100.00;100266.03;5053970;28;20116;-71
2021/12/06 05:05:17;;;;;;;40.58;18.23;;;;;;;5.32;100.00;100260.72;5039576;28;20025;-71
2021/12/06 05:08:25;;;;;;;45.35;18.88;;;;;;;5.35;100.00;100249.47;5054279;28;20036;-71
2021/12/06 05:11:11;;;;;;;36.08;17.60;;;;;;;5.31;100.00;100243.41;5038935;28;20351;-71
2021/12/06 05:14:01;;;;;;;43.00;18.08;;;;;;;5.42;100.00;100234.72;5052955;28;20453;-71
2021/12/06 05:16:47;;;;;;;39.92;18.73;;;;;;;5.33;100.00;100233.03;5053039;28;20043;-72
2021/12/06 05:19:33;;;;;;;32.20;16.35;;;;;;;5.61;100.00;100231.16;5054229;28;20426;-70
2021/12/06 05:22:19;;;;;;;28.45;14.63;;;;;;;5.52;100.00;100231.22;5054182;28;20317;-71
2021/12/06 05:25:06;;;;;;;34.88;16.42;;;;;;;5.21;100.00;100239.16;5053786;28;20029;-70
2021/12/06 05:27:53;;;;;;;40.08;16.83;;;;;;;4.82;100.00;100234.06;5053976;28;20021;-72
2021/12/06 05:30:40;;;;;;;30.40;15.73;;;;;;;5.21;100.00;100231.34;5039510;28;20033;-72
2021/12/06 05:33:30;;;;;;;31.17;16.67;;;;;;;5.26;100.00;100245.19;5053719;28;20032;-71
2021/12/06 05:36:16;;;;;;;32.28;18.13;;;;;;;5.66;100.00;100235.44;5054549;28;20052;-71
2021/12/06 05:39:06;;;;;;;36.83;19.58;;;;;;;5.69;100.00;100227.66;5053558;28;20107;-72
2021/12/06 05:41:51;;;;;;;36.40;18.90;;;;;;;5.95;100.00;100238.78;5037626;28;20025;-71
2021/12/06 05:44:38;;;;;;;36.42;19.83;;;;;;;6.17;100.00;100260.28;5053627;28;20419;-72
2021/12/06 05:47:24;;;;;;;32.42;17.88;;;;;;;6.10;100.00;100253.44;5052750;28;20113;-71
2021/12/06 05:50:11;;;;;;;32.03;17.85;;;;;;;6.23;100.00;100240.31;5052600;28;20412;-72
2021/12/06 05:52:57;;;;;;;38.70;19.70;;;;;;;6.44;100.00;100224.53;5039316;28;20065;-71
2021/12/06 05:55:44;;;;;;;37.00;18.13;;;;;;;5.50;100.00;100227.78;5053079;28;20108;-71
2021/12/06 05:58:32;;;;;;;31.65;17.80;;;;;;;5.51;100.00;100230.38;5038433;28;20108;-71
2021/12/06 06:01:18;;;;;;;30.63;17.13;;;;;;;5.98;100.00;100232.72;5054043;28;20420;-71
2021/12/06 06:04:04;;;;;;;32.03;16.33;;;;;;;5.59;100.00;100230.31;5053737;28;20127;-72
2021/12/06 06:06:50;;;;;;;30.30;16.63;;;;;;;5.77;100.00;100232.78;5052754;28;20323;-73
2021/12/06 06:09:36;;;;;;;31.77;16.92;;;;;;;6.05;100.00;100234.38;5052634;28;20075;-72
2021/12/06 06:12:22;;;;;;;31.42;16.25;;;;;;;5.65;100.00;100227.66;5055079;28;20388;-71
2021/12/06 06:15:08;;;;;;;31.10;17.77;;;;;;;6.01;100.00;100228.34;5038037;28;20029;-72
2021/12/06 06:17:54;;;;;;;27.35;15.65;;;;;;;5.96;100.00;100243.13;5041672;28;20402;-72
2021/12/06 06:20:51;;;;;;;30.70;16.58;;;;;;;6.31;100.00;100263.69;5041524;28;20025;-71
2021/12/06 06:23:37;;;;;;;32.88;16.75;;;;;;;6.39;100.00;100273.13;5042492;28;20068;-71
2021/12/06 06:26:23;;;;;;;27.38;14.70;;;;;;;6.22;100.00;100279.34;5057988;28;20017;-71
2021/12/06 06:29:10;;;;;;;27.25;15.23;;;;;;;6.11;100.00;100262.94;5057045;28;20109;-71
2021/12/06 06:31:56;;;;;;;33.28;16.67;;;;;;;6.14;100.00;100258.59;5058009;28;20025;-70
2021/12/06 06:34:42;;;;;;;26.85;15.75;;;;;;;6.58;100.00;100245.22;5055901;28;20029;-71
2021/12/06 06:37:28;;;;;;;37.05;21.25;;;;;;;6.54;100.00;100254.78;5056903;28;20025;-71
2021/12/06 06:40:15;;;;;;;35.88;20.83;;;;;;;6.30;100.00;100248.94;5056338;28;20191;-72
2021/12/06 06:43:01;;;;;;;29.58;16.50;;;;;;;6.06;100.00;100251.72;5056061;28;20067;-71
2021/12/06 06:45:46;;;;;;;31.30;17.88;;;;;;;6.51;100.00;100241.81;5055902;28;20331;-71
2021/12/06 06:48:33;;;;;;;37.08;18.48;;;;;;;6.40;100.00;100233.25;5042062;28;20040;-70
2021/12/06 06:51:19;;;;;;;32.85;17.42;;;;;;;6.14;100.00;100226.53;5056005;28;20033;-71
2021/12/06 06:54:05;;;;;;;30.60;17.77;;;;;;;5.92;100.00;100232.75;5056409;28;20098;-71
2021/12/06 06:56:51;;;;;;;29.30;18.23;;;;;;;6.29;100.00;100247.19;5040387;28;20029;-71
2021/12/06 06:59:38;;;;;;;25.95;15.15;;;;;;;6.28;100.00;100242.88;5055970;28;20021;-71
2021/12/06 07:02:24;;;;;;;28.27;15.45;;;;;;;5.74;100.00;100238.88;5056221;28;20060;-71
2021/12/06 07:05:10;;;;;;;25.60;14.63;;;;;;;5.63;100.00;100248.50;5057174;28;20458;-71
2021/12/06 07:07:57;;;;;;;23.27;14.38;;;;;;;5.87;100.00;100263.94;5056570;28;20119;-71
2021/12/06 07:10:45;;;;;;;22.40;13.75;;;;;;;6.05;100.00;100265.56;5055140;28;20041;-70
2021/12/06 07:13:36;;;;;;;25.92;15.38;;;;;;;6.53;100.00;100267.81;5054970;28;20090;-71
2021/12/06 07:16:23;;;;;;;27.75;16.92;;;;;;;6.61;100.00;100263.41;5057280;28;20068;-72
2021/12/06 07:19:09;;;;;;;28.80;15.65;;;;;;;6.73;100.00;100261.56;5056051;28;20033;-71
2021/12/06 07:21:55;;;;;;;26.25;15.80;;;;;;;6.50;100.00;100268.72;5055209;28;20089;-71
2021/12/06 07:24:41;;;;;;;24.92;13.98;;;;;;;6.20;100.00;100281.97;5055589;28;20107;-71
2021/12/06 07:27:26;;;;;;;22.63;13.63;;;;;;;6.08;100.00;100291.56;5055900;28;20111;-70
2021/12/06 07:30:14;;;;;;;19.10;12.60;;;;;;;6.21;100.00;100294.09;5056831;28;20125;-71
2021/12/06 07:33:00;;;;;;;24.60;15.98;;;;;;;6.21;100.00;100283.69;5055298;28;20025;-71
2021/12/06 07:35:46;;;;;;;25.23;16.05;;;;;;;6.87;100.00;100274.47;5041857;28;20033;-72
2021/12/06 07:38:34;;;;;;;30.95;17.80;;;;;;;6.66;100.00;100279.84;5054896;28;20461;-71
2021/12/06 07:41:23;;;;;;;29.63;17.75;;;;;;;7.14;100.00;100280.25;5041982;28;20037;-71
2021/12/06 07:44:09;;;;;;;49.70;27.52;;;;;;;6.92;100.00;100280.47;5055057;28;20037;-71
2021/12/06 07:46:55;;;;;;;42.95;22.35;;;;;;;6.96;100.00;100283.06;5055709;28;20043;-71
2021/12/06 07:49:43;;;;;;;39.20;21.20;;;;;;;7.02;100.00;100292.50;5055022;28;20111;-71
2021/12/06 07:52:30;;;;;;;35.47;17.88;;;;;;;6.05;100.00;100279.44;5054055;28;20025;-71
2021/12/06 07:55:17;;;;;;;34.58;17.25;;;;;;;6.37;100.00;100271.41;5054874;28;20115;-71
2021/12/06 07:58:08;;;;;;;31.77;17.52;;;;;;;6.12;100.00;100275.06;5054894;28;20025;-73
2021/12/06 08:00:55;;;;;;;28.95;17.23;;;;;;;6.12;100.00;100281.16;5055030;28;20101;-71
2021/12/06 08:03:43;;;;;;;35.17;18.63;;;;;;;6.29;100.00;100279.28;5053754;28;20029;-71
2021/12/06 08:06:29;;;;;;;32.25;17.85;;;;;;;6.86;100.00;100280.53;5054645;28;20453;-72
2021/12/06 08:09:15;;;;;;;31.92;17.20;;;;;;;6.67;100.00;100286.78;5054581;28;20461;-72
2021/12/06 08:12:01;;;;;;;33.42;17.17;;;;;;;6.59;100.00;100286.00;5040189;28;20088;-71
2021/12/06 08:14:47;;;;;;;31.67;16.63;;;;;;;6.82;100.00;100276.22;5055682;28;20465;-71
2021/12/06 08:17:33;;;;;;;28.90;16.38;;;;;;;6.71;100.00;100285.88;5055186;28;20025;-71
2021/12/06 08:20:19;;;;;;;44.45;19.10;;;;;;;6.44;100.00;100273.97;5055359;28;20029;-70
2021/12/06 08:23:06;;;;;;;35.63;18.25;;;;;;;6.30;100.00;100260.19;5040740;28;20040;-71
2021/12/06 08:25:53;;;;;;;38.78;22.52;;;;;;;6.08;100.00;100269.03;5053952;28;20024;-72
2021/12/06 08:28:39;;;;;;;35.58;20.50;;;;;;;6.23;100.00;100286.28;5055676;28;20021;-72
2021/12/06 08:31:27;;;;;;;47.45;20.67;;;;;;;5.76;100.00;100272.66;5040245;28;20041;-72
2021/12/06 08:34:13;;;;;;;48.90;22.02;;;;;;;5.71;100.00;100269.22;5054282;28;20029;-71
2021/12/06 08:37:02;;;;;;;46.58;25.60;;;;;;;5.80;100.00;100274.38;5054843;28;20032;-72
2021/12/06 08:39:47;;;;;;;52.03;23.35;;;;;;;5.86;100.00;100287.38;5054525;28;20040;-72
2021/12/06 08:42:33;;;;;;;37.92;21.08;;;;;;;6.34;100.00;100279.28;5054063;28;20466;-71
2021/12/06 08:45:21;;;;;;;53.53;23.63;;;;;;;6.02;100.00;100273.41;5039619;28;20111;-71
2021/12/06 08:48:06;;;;;;;45.80;22.35;;;;;;;5.80;100.00;100276.97;5039738;28;20043;-71
2021/12/06 08:50:54;;;;;;;46.85;24.15;;;;;;;6.58;100.00;100266.03;5039667;28;20476;-73
2021/12/06 08:53:42;;;;;;;37.08;21.00;;;;;;;6.43;100.00;100255.78;5056042;28;20037;-71
2021/12/06 08:56:28;;;;;;;42.10;21.05;;;;;;;6.59;100.00;100259.97;5053376;28;20047;-71
2021/12/06 08:59:15;;;;;;;42.72;21.77;;;;;;;6.46;100.00;100259.19;5038418;28;20024;-71
2021/12/06 09:02:00;;;;;;;37.75;21.48;;;;;;;6.45;100.00;100248.81;5055084;28;20043;-72
2021/12/06 09:04:47;;;;;;;53.53;25.67;;;;;;;7.10;100.00;100249.03;5054056;28;20085;-72
2021/12/06 09:07:33;;;;;;;44.25;23.77;;;;;;;7.01;100.00;100251.72;5039005;28;20104;-71
2021/12/06 09:10:19;;;;;;;46.17;24.00;;;;;;;6.87;100.00;100245.81;5054845;28;20071;-71
2021/12/06 09:13:05;;;;;;;50.33;27.13;;;;;;;6.66;100.00;100241.66;5054350;28;20057;-71
2021/12/06 09:15:53;;;;;;;43.88;22.77;;;;;;;6.88;100.00;100235.41;5052970;28;20029;-71
2021/12/06 09:18:41;;;;;;;52.75;24.88;;;;;;;7.04;100.00;100238.69;5053235;28;20033;-71
2021/12/06 09:21:27;;;;;;;42.30;24.83;;;;;;;6.60;100.00;100248.69;5053303;28;20032;-71
2021/12/06 09:24:19;;;;;;;46.20;25.15;;;;;;;7.16;100.00;100262.00;5039213;28;20029;-71
2021/12/06 09:27:06;;;;;;;44.10;24.25;;;;;;;7.61;100.00;100254.50;5037928;28;20025;-71
2021/12/06 09:29:55;;;;;;;47.58;25.10;;;;;;;7.19;100.00;100247.19;5038601;28;20440;-72
2021/12/06 09:32:41;;;;;;;41.05;21.08;;;;;;;7.60;100.00;100257.13;5053827;28;20044;-71
2021/12/06 09:35:29;;;;;;;49.60;23.23;;;;;;;6.69;100.00;100251.19;5054790;28;20017;-71
2021/12/06 09:38:18;;;;;;;52.25;28.05;;;;;;;6.72;100.00;100254.66;5053810;28;20029;-72
2021/12/06 09:41:10;;;;;;;45.35;25.80;;;;;;;7.49;100.00;100243.34;5052764;28;20454;-72
2021/12/06 09:44:01;;;;;;;36.45;21.02;;;;;;;6.75;100.00;100238.13;5053544;28;20334;-71
2021/12/06 09:46:48;;;;;;;38.25;21.92;;;;;;;7.16;100.00;100238.56;5052704;28;20093;-72
2021/12/06 09:49:33;;;;;;;46.97;25.25;;;;;;;7.56;100.00;100229.38;5053412;28;20028;-71
2021/12/06 09:52:21;;;;;;;53.42;24.98;;;;;;;6.85;100.00;100235.41;5042526;28;20446;-71
2021/12/06 09:55:07;;;;;;;54.45;26.23;;;;;;;6.85;100.00;100234.53;5056811;28;20040;-70
2021/12/06 09:57:53;;;;;;;40.42;22.42;;;;;;;6.61;100.00;100226.97;5056847;28;20025;-71
2021/12/06 10:00:44;;;;;;;50.97;24.90;;;;;;;6.80;100.00;100219.00;5058502;28;20052;-73
2021/12/06 10:03:30;;;;;;;49.75;26.13;;;;;;;6.59;100.00;100228.75;5041874;28;20115;-71
2021/12/06 10:06:17;;;;;;;56.70;28.98;;;;;;;6.73;100.00;100226.84;5042639;28;20028;-72
2021/12/06 10:09:07;;;;;;;54.97;27.23;;;;;;;6.57;100.00;100223.56;5056477;28;20028;-70
2021/12/06 10:11:56;;;;;;;54.45;27.52;;;;;;;6.72;100.00;100225.13;5042970;28;20103;-71
2021/12/06 10:14:47;;;;;;;52.92;27.02;;;;;;;6.32;100.00;100227.25;5042494;28;20025;-71
2021/12/06 10:17:34;;;;;;;48.83;25.92;;;;;;;6.72;100.00;100214.72;5056613;28;20028;-71
2021/12/06 10:20:20;;;;;;;39.33;22.52;;;;;;;6.54;100.00;100207.97;5056249;28;20449;-70
2021/12/06 10:23:06;;;;;;;42.03;22.42;;;;;;;7.03;100.00;100208.31;5056830;28;20033;-72
2021/12/06 10:25:54;;;;;;;47.47;22.17;;;;;;;6.79;100.00;100204.22;5057524;28;20364;-72
2021/12/06 10:28:43;;;;;;;41.22;22.83;;;;;;;6.78;100.00;100204.22;5056463;28;20478;-71
2021/12/06 10:31:30;;;;;;;41.85;22.60;;;;;;;6.40;100.00;100198.56;5040263;28;20025;-71
2021/12/06 10:34:22;;;;;;;45.70;23.33;;;;;;;6.25;100.00;100202.16;5042469;28;20020;-70
2021/12/06 10:37:30;;;;;;;37.25;21.67;;;;;;;6.32;100.00;100206.44;5056487;28;20029;-71
2021/12/06 10:40:22;;;;;;;37.95;21.48;;;;;;;6.50;100.00;100193.25;5056188;28;20457;-71
2021/12/06 10:43:11;;;;;;;51.95;26.58;;;;;;;6.74;100.00;100177.38;5042050;28;20051;-71
2021/12/06 10:45:59;;;;;;;60.00;30.95;;;;;;;6.97;100.00;100184.94;5055958;28;20021;-71
2021/12/06 10:48:45;;;;;;;62.28;29.40;;;;;;;7.12;100.00;100193.41;5056239;28;20044;-71
2021/12/06 10:51:32;;;;;;;47.15;26.50;;;;;;;7.30;100.00;100192.34;5055967;28;20036;-71
2021/12/06 10:54:30;;;;;;;48.05;25.92;;;;;;;7.00;100.00;100191.00;5056506;28;20029;-72
2021/12/06 10:57:18;;;;;;;57.03;29.17;;;;;;;7.17;100.00;100196.00;5056118;28;20112;-72
2021/12/06 11:00:05;;;;;;;51.22;28.10;;;;;;;7.42;100.00;100190.44;5055455;28;20043;-73
2021/12/06 11:02:50;;;;;;;46.85;26.15;;;;;;;7.69;100.00;100189.22;5055732;28;20028;-72
2021/12/06 11:05:37;;;;;;;57.25;31.27;;;;;;;7.94;100.00;100187.97;5055952;28;20035;-72
2021/12/06 11:08:23;;;;;;;59.67;29.83;;;;;;;7.72;100.00;100178.75;5042088;28;20461;-71
2021/12/06 11:11:14;;;;;;;59.72;33.60;;;;;;;8.01;100.00;100186.97;5055598;28;20150;-71
2021/12/06 11:14:06;;;;;;;55.83;31.90;;;;;;;7.67;100.00;100191.84;5055583;28;20037;-71
2021/12/06 11:16:55;;;;;;;50.10;27.90;;;;;;;7.64;100.00;100204.06;5055323;28;20404;-70
2021/12/06 11:19:41;;;;;;;54.33;27.08;;;;;;;7.98;100.00;100181.81;5055485;28;20453;-72
2021/12/06 11:22:27;;;;;;;63.80;31.13;;;;;;;7.89;100.00;100176.75;5041985;28;20093;-71
2021/12/06 11:25:13;;;;;;;60.53;29.40;;;;;;;8.35;100.00;100168.16;5057086;28;20041;-71
2021/12/06 11:27:59;;;;;;;48.85;25.00;;;;;;;8.34;100.00;100163.84;5040539;28;20036;-71
2021/12/06 11:30:56;;;;;;;42.60;23.50;;;;;;;8.14;100.00;100162.41;5041868;28;20067;-72
2021/12/06 11:33:42;;;;;;;44.05;23.02;;;;;;;8.29;100.00;100147.41;5054931;28;20017;-71
2021/12/06 11:36:30;;;;;;;44.88;22.75;;;;;;;8.09;100.00;100154.69;5055906;28;20025;-72
2021/12/06 11:39:19;;;;;;;39.50;22.00;;;;;;;7.98;100.00;100169.63;5054899;28;20036;-72
2021/12/06 11:42:05;;;;;;;38.30;22.05;;;;;;;8.32;100.00;100162.16;5041780;28;20389;-72
2021/12/06 11:44:51;;;;;;;33.70;20.08;;;;;;;8.31;100.00;100168.25;5055981;28;20028;-72
2021/12/06 11:47:37;;;;;;;37.67;21.00;;;;;;;8.45;100.00;100166.25;5040361;28;20044;-72
2021/12/06 11:50:27;;;;;;;30.90;19.88;;;;;;;8.44;100.00;100165.38;5039944;28;20028;-71
2021/12/06 11:53:15;;;;;;;36.67;22.00;;;;;;;7.84;100.00;100158.53;5055017;28;20086;-71
2021/12/06 11:56:13;;;;;;;37.97;21.80;;;;;;;7.98;100.00;100172.25;5055976;28;20039;-71
2021/12/06 11:59:05;;;;;;;26.35;17.05;;;;;;;8.10;100.00;100164.22;5056341;28;20037;-71
2021/12/06 12:01:55;;;;;;;35.17;19.10;;;;;;;8.14;100.00;100139.81;5056043;28;20024;-71
2021/12/06 12:04:41;;;;;;;31.40;19.00;;;;;;;8.22;100.00;100131.88;5054922;28;20054;-71
2021/12/06 12:07:27;;;;;;;36.88;21.05;;;;;;;8.17;100.00;100137.16;5054561;28;20044;-72
2021/12/06 12:10:13;;;;;;;36.20;20.75;;;;;;;7.74;100.00;100148.28;5055602;28;20060;-71
2021/12/06 12:12:59;;;;;;;29.45;18.48;;;;;;;7.31;100.00;100145.44;5054580;28;20024;-72
2021/12/06 12:15:45;;;;;;;30.08;19.13;;;;;;;7.76;100.00;100160.41;5054422;28;20445;-73
2021/12/06 12:18:36;;;;;;;33.90;19.73;;;;;;;7.87;100.00;100155.03;5054566;28;20047;-72
2021/12/06 12:21:24;;;;;;;37.20;21.75;;;;;;;7.89;100.00;100158.47;5052820;28;20033;-72
2021/12/06 12:24:10;;;;;;;33.95;20.58;;;;;;;8.06;100.00;100167.78;5054927;28;20056;-71
2021/12/06 12:27:03;;;;;;;39.63;22.95;;;;;;;8.47;100.00;100152.28;5054232;28;20028;-71
2021/12/06 12:29:51;;;;;;;40.05;23.60;;;;;;;7.94;100.00;100159.25;5040681;28;20064;-71
2021/12/06 12:32:36;;;;;;;44.15;26.33;;;;;;;8.19;100.00;100139.72;5054089;28;20013;-70
2021/12/06 12:35:22;;;;;;;51.22;27.73;;;;;;;8.12;100.00;100158.97;5055956;28;20025;-71
2021/12/06 12:38:11;;;;;;;62.45;31.67;;;;;;;7.93;100.00;100152.34;5054056;28;20357;-71
2021/12/06 12:41:01;;;;;;;57.47;28.60;;;;;;;7.98;100.00;100159.19;5039233;28;20039;-71
2021/12/06 12:44:07;;;;;;;55.40;29.67;;;;;;;7.73;100.00;100150.03;5054075;28;20024;-70
2021/12/06 12:46:54;;;;;;;46.45;25.30;;;;;;;8.02;100.00;100158.28;5053776;28;20049;-71
2021/12/06 12:49:44;;;;;;;41.10;22.63;;;;;;;7.89;100.00;100155.88;5054245;28;20039;-70
2021/12/06 12:52:33;;;;;;;38.42;22.83;;;;;;;7.11;100.00;100150.03;5055400;28;20096;-71
2021/12/06 12:55:23;;;;;;;40.75;22.58;;;;;;;7.13;100.00;100156.09;5054086;28;20028;-70
2021/12/06 12:58:19;;;;;;;56.50;25.92;;;;;;;7.62;100.00;100151.94;5055473;28;20025;-70
2021/12/06 13:01:11;;;;;;;38.40;22.67;;;;;;;7.87;100.00;100139.38;5054667;28;20041;-70